Terminal Aerodrome Forecast
Issued by NWS

Home | Current Version | Previous Version | Graphics & Text | Print | Product List | Glossary On
Versions: 1 2 3 4 5 6 7 8 9 10 11 12 13 14 15 16 17 18 19 20
000
FTUS43 KFGF 251720
TAFBJI
TAF
KBJI 251720Z 2518/2618 11009KT P6SM BKN250
     FM251930 11012KT P6SM -TSRA BKN080CB
     FM252200 12015G22KT P6SM VCTS BKN060CB
     FM260200 12011KT P6SM BKN030
     FM261200 21009KT P6SM BKN025=

USA.gov is the U.S. government's official web portal to all federal, state and local government web resources and services.